Time;durP1;ratioP1;P1;durP2;ratioP2;P2;SDS_P1;SDS_P2;PMS_P1;PMS_P2;Temp;Humidity;BMP_temperature;BMP_pressure;BME280_temperature;BME280_humidity;BME280_pressure;Samples;Min_cycle;Max_cycle;Signal;HPM_P1;HPM_P2
2023/10/23 00:01:36;;;;;;;;;;;;;;;13.17;100.00;100669.66;109766;1238;64238;-80
2023/10/23 00:04:06;;;;;;;;;;;;;;;13.25;100.00;100671.63;109964;1240;58252;-78
2023/10/23 00:06:35;;;;;;;;;;;;;;;13.34;100.00;100670.25;109943;1237;58289;-79
2023/10/23 00:09:04;;;;;;;;;;;;;;;13.40;100.00;100667.74;110128;1237;63828;-78
2023/10/23 00:11:32;;;;;;;;;;;;;;;13.43;100.00;100669.11;110106;1238;72697;-80
2023/10/23 00:14:01;;;;;;;;;;;;;;;13.40;100.00;100667.40;110155;1238;60164;-80
2023/10/23 00:16:30;;;;;;;;;;;;;;;13.48;100.00;100669.53;110143;1237;63165;-78
2023/10/23 00:18:59;;;;;;;;;;;;;;;13.80;100.00;100665.43;110059;1242;57781;-79
2023/10/23 00:21:27;;;;;;;;;;;;;;;13.83;100.00;100662.32;110100;1238;57829;-79
2023/10/23 00:23:55;;;;;;;;;;;;;;;13.83;100.00;100668.48;110189;1239;71737;-79
2023/10/23 00:26:24;;;;;;;;;;;;;;;13.79;100.00;100666.16;110145;1238;61967;-81
2023/10/23 00:28:53;;;;;;;;;;;;;;;13.82;100.00;100669.45;110041;1238;69724;-80
2023/10/23 00:31:23;;;;;;;;;;;;;;;13.83;100.00;100670.02;110191;1238;63659;-78
2023/10/23 00:33:51;;;;;;;;;;;;;;;13.78;100.00;100673.03;110143;1239;62715;-79
2023/10/23 00:36:20;;;;;;;;;;;;;;;13.74;100.00;100671.36;109937;1238;61310;-80
2023/10/23 00:38:49;;;;;;;;;;;;;;;13.69;100.00;100671.80;110042;1238;63335;-79
2023/10/23 00:41:17;;;;;;;;;;;;;;;13.65;100.00;100669.00;110047;1237;71302;-79
2023/10/23 00:43:46;;;;;;;;;;;;;;;13.65;100.00;100667.92;110074;1238;60492;-80
2023/10/23 00:46:18;;;;;;;;;;;;;;;13.62;100.00;100672.55;110115;1239;73819;-77
2023/10/23 00:48:47;;;;;;;;;;;;;;;13.62;100.00;100675.33;110049;1241;63033;-77
2023/10/23 00:51:17;;;;;;;;;;;;;;;13.63;100.00;100681.54;110055;1238;58229;-76
2023/10/23 00:53:46;;;;;;;;;;;;;;;13.62;100.00;100688.29;110043;1238;62757;-78
2023/10/23 00:56:15;;;;;;;;;;;;;;;13.62;100.00;100691.15;110091;1237;61766;-78
2023/10/23 00:58:44;;;;;;;;;;;;;;;13.64;100.00;100691.98;110142;1239;69065;-79
2023/10/23 01:01:12;;;;;;;;;;;;;;;13.71;100.00;100692.81;110034;1238;73442;-77
2023/10/23 01:03:42;;;;;;;;;;;;;;;13.68;100.00;100684.46;109991;1241;63176;-79
2023/10/23 01:06:14;;;;;;;;;;;;;;;13.70;100.00;100686.56;110086;1239;59045;-79
2023/10/23 01:08:43;;;;;;;;;;;;;;;13.78;100.00;100698.27;110168;1238;74297;-80
2023/10/23 01:11:11;;;;;;;;;;;;;;;13.76;100.00;100699.55;110123;1238;70634;-80
2023/10/23 01:13:40;;;;;;;;;;;;;;;13.73;100.00;100703.30;110064;1238;60104;-78
2023/10/23 01:16:08;;;;;;;;;;;;;;;13.70;100.00;100704.41;110160;1239;73013;-79
2023/10/23 01:18:37;;;;;;;;;;;;;;;13.68;100.00;100706.20;109988;1237;62831;-79
2023/10/23 01:21:06;;;;;;;;;;;;;;;13.61;100.00;100711.66;110124;1237;58296;-79
2023/10/23 01:23:36;;;;;;;;;;;;;;;13.57;100.00;100713.59;110130;1238;74305;-79
2023/10/23 01:26:04;;;;;;;;;;;;;;;13.58;100.00;100718.89;110146;1238;72231;-80
2023/10/23 01:28:33;;;;;;;;;;;;;;;13.57;100.00;100723.06;110180;1239;59791;-79
2023/10/23 01:31:01;;;;;;;;;;;;;;;13.52;100.00;100724.99;110033;1239;64004;-79
2023/10/23 01:33:30;;;;;;;;;;;;;;;13.40;100.00;100726.40;110128;1239;57740;-77
2023/10/23 01:35:58;;;;;;;;;;;;;;;13.30;100.00;100732.86;110025;1240;59953;-76
2023/10/23 01:38:27;;;;;;;;;;;;;;;13.15;100.00;100731.95;110119;1239;63260;-79
2023/10/23 01:40:55;;;;;;;;;;;;;;;13.05;100.00;100731.68;110073;1239;71182;-79
2023/10/23 01:43:24;;;;;;;;;;;;;;;12.98;100.00;100735.58;110054;1237;59333;-79
2023/10/23 01:45:52;;;;;;;;;;;;;;;12.95;100.00;100731.25;110107;1238;73764;-78
2023/10/23 01:48:21;;;;;;;;;;;;;;;12.89;100.00;100733.70;110015;1241;58382;-78
2023/10/23 01:50:50;;;;;;;;;;;;;;;12.75;100.00;100725.61;110118;1238;60137;-76
2023/10/23 01:53:19;;;;;;;;;;;;;;;12.77;100.00;100731.71;110114;1241;64132;-78
2023/10/23 01:55:47;;;;;;;;;;;;;;;12.80;100.00;100734.95;109996;1238;72024;-79
2023/10/23 01:58:16;;;;;;;;;;;;;;;12.85;100.00;100730.16;109937;1238;60163;-78
2023/10/23 02:00:44;;;;;;;;;;;;;;;12.87;100.00;100728.80;109894;1238;72637;-80
2023/10/23 02:03:13;;;;;;;;;;;;;;;12.85;100.00;100727.10;110063;1239;58376;-79
2023/10/23 02:05:42;;;;;;;;;;;;;;;12.84;100.00;100727.66;110144;1239;57857;-80
2023/10/23 02:08:10;;;;;;;;;;;;;;;12.87;100.00;100728.09;110160;1239;74123;-79
2023/10/23 02:10:39;;;;;;;;;;;;;;;12.93;100.00;100728.11;110048;1242;61824;-80
2023/10/23 02:13:08;;;;;;;;;;;;;;;13.01;100.00;100734.27;110024;1238;59382;-79
2023/10/23 02:15:37;;;;;;;;;;;;;;;13.07;100.00;100733.13;109992;1242;73557;-79
2023/10/23 02:18:06;;;;;;;;;;;;;;;13.10;100.00;100734.98;109990;1241;61533;-79
2023/10/23 02:20:34;;;;;;;;;;;;;;;13.12;100.00;100743.41;110006;1237;60658;-79
2023/10/23 02:23:03;;;;;;;;;;;;;;;13.11;100.00;100746.96;110003;1242;63247;-79
2023/10/23 02:25:31;;;;;;;;;;;;;;;13.12;100.00;100741.48;110034;1238;71430;-79
2023/10/23 02:28:00;;;;;;;;;;;;;;;13.14;100.00;100746.88;110180;1238;60345;-79
2023/10/23 02:30:28;;;;;;;;;;;;;;;13.12;100.00;100742.68;110088;1238;73677;-78
2023/10/23 02:32:57;;;;;;;;;;;;;;;13.08;100.00;100748.10;110117;1239;62493;-77
2023/10/23 02:35:26;;;;;;;;;;;;;;;13.03;100.00;100758.61;110142;1238;58242;-76
2023/10/23 02:37:54;;;;;;;;;;;;;;;12.94;100.00;100764.20;110161;1239;74321;-78
2023/10/23 02:40:23;;;;;;;;;;;;;;;12.88;100.00;100765.81;110037;1242;61953;-77
2023/10/23 02:42:51;;;;;;;;;;;;;;;12.80;100.00;100767.13;110148;1238;70399;-79
2023/10/23 02:45:21;;;;;;;;;;;;;;;12.71;100.00;100768.73;110119;1242;62725;-78
2023/10/23 02:47:49;;;;;;;;;;;;;;;12.64;100.00;100772.93;110116;1241;61904;-79
2023/10/23 02:50:19;;;;;;;;;;;;;;;12.61;100.00;100769.56;110049;1237;61496;-78
2023/10/23 02:52:47;;;;;;;;;;;;;;;12.65;100.00;100763.92;110032;1238;75686;-78
2023/10/23 02:55:16;;;;;;;;;;;;;;;12.79;100.00;100764.40;110102;1242;61794;-78
2023/10/23 02:57:44;;;;;;;;;;;;;;;12.93;100.00;100759.05;110106;1238;70312;-80
2023/10/23 03:00:13;;;;;;;;;;;;;;;13.02;100.00;100759.04;110200;1239;73939;-82
2023/10/23 03:02:44;;;;;;;;;;;;;;;13.03;100.00;100758.16;110129;1239;58145;-81
2023/10/23 03:05:14;;;;;;;;;;;;;;;13.01;100.00;100769.11;110158;1238;58243;-83
2023/10/23 03:07:42;;;;;;;;;;;;;;;12.97;100.00;100775.03;110166;1237;74042;-79
2023/10/23 03:10:11;;;;;;;;;;;;;;;12.90;100.00;100776.77;109924;1240;73223;-79
2023/10/23 03:12:40;;;;;;;;;;;;;;;12.84;100.00;100779.73;110017;1239;60430;-78
2023/10/23 03:15:09;;;;;;;;;;;;;;;12.84;100.00;100782.15;109910;1238;73013;-79
2023/10/23 03:17:38;;;;;;;;;;;;;;;12.90;100.00;100787.29;110146;1239;63153;-79
2023/10/23 03:20:08;;;;;;;;;;;;;;;12.95;100.00;100783.52;110075;1239;57819;-78
2023/10/23 03:22:38;;;;;;;;;;;;;;;13.01;100.00;100781.71;110056;1239;63854;-78
2023/10/23 03:25:07;;;;;;;;;;;;;;;13.06;100.00;100779.01;109897;1241;70394;-78
2023/10/23 03:27:36;;;;;;;;;;;;;;;13.08;100.00;100776.89;110067;1242;60109;-77
2023/10/23 03:30:06;;;;;;;;;;;;;;;13.05;100.00;100775.63;110026;1241;63208;-78
2023/10/23 03:32:35;;;;;;;;;;;;;;;12.98;100.00;100778.30;110096;1239;58153;-77
2023/10/23 03:35:04;;;;;;;;;;;;;;;12.91;100.00;100779.01;110092;1238;58228;-79
2023/10/23 03:37:32;;;;;;;;;;;;;;;12.83;100.00;100781.03;110022;1238;74310;-77
2023/10/23 03:40:01;;;;;;;;;;;;;;;12.72;100.00;100786.47;110140;1239;61918;-79
2023/10/23 03:42:30;;;;;;;;;;;;;;;12.53;100.00;100792.20;110033;1238;68405;-79
2023/10/23 03:44:58;;;;;;;;;;;;;;;12.39;100.00;100794.52;109995;1238;72962;-77
2023/10/23 03:47:27;;;;;;;;;;;;;;;12.31;100.00;100798.29;110012;1241;58303;-78
2023/10/23 03:49:55;;;;;;;;;;;;;;;12.23;100.00;100798.04;110092;1241;60051;-79
2023/10/23 03:52:24;;;;;;;;;;;;;;;12.15;100.00;100798.44;110111;1239;63748;-82
2023/10/23 03:54:52;;;;;;;;;;;;;;;12.07;100.00;100803.30;110075;1238;72713;-79
2023/10/23 03:57:21;;;;;;;;;;;;;;;12.00;100.00;100805.05;110074;1242;59330;-79
2023/10/23 03:59:50;;;;;;;;;;;;;;;11.95;100.00;100811.73;109930;1242;63103;-76
2023/10/23 04:02:18;;;;;;;;;;;;;;;11.87;100.00;100821.95;109873;1242;62929;-78
2023/10/23 04:04:47;;;;;;;;;;;;;;;11.82;100.00;100843.44;110114;1242;58315;-78
2023/10/23 04:07:15;;;;;;;;;;;;;;;12.07;100.00;100846.09;109929;1238;74298;-78
2023/10/23 04:09:44;;;;;;;;;;;;;;;12.52;100.00;100852.89;110088;1242;60650;-77
2023/10/23 04:12:13;;;;;;;;;;;;;;;12.91;100.00;100850.31;109940;1242;59804;-81
2023/10/23 04:14:45;;;;;;;;;;;;;;;13.04;100.00;100847.17;109905;1238;73022;-78
2023/10/23 04:17:13;;;;;;;;;;;;;;;13.11;100.00;100842.25;110098;1239;62021;-78
2023/10/23 04:19:42;;;;;;;;;;;;;;;13.14;100.00;100842.49;110029;1239;58301;-82
2023/10/23 04:22:10;;;;;;;;;;;;;;;13.22;100.00;100844.85;110104;1239;74082;-79
2023/10/23 04:24:39;;;;;;;;;;;;;;;13.36;100.00;100847.74;110116;1239;61449;-83
2023/10/23 04:27:08;;;;;;;;;;;;;;;13.51;100.00;100844.07;110073;1242;69441;-81
2023/10/23 04:29:37;;;;;;;;;;;;;;;13.57;100.00;100856.52;109998;1242;64316;-84
2023/10/23 04:32:05;;;;;;;;;;;;;;;13.55;100.00;100864.55;110041;1241;62693;-82
2023/10/23 04:34:34;;;;;;;;;;;;;;;13.50;100.00;100873.16;109887;1242;57947;-82
2023/10/23 04:37:03;;;;;;;;;;;;;;;13.45;100.00;100875.91;110006;1238;74105;-83
2023/10/23 04:39:32;;;;;;;;;;;;;;;13.41;100.00;100883.05;109895;1242;72274;-84
2023/10/23 04:42:01;;;;;;;;;;;;;;;13.37;100.00;100889.98;109914;1242;61290;-83
2023/10/23 04:44:30;;;;;;;;;;;;;;;13.34;100.00;100894.80;110025;1238;63177;-82
2023/10/23 04:46:59;;;;;;;;;;;;;;;13.30;100.00;100894.11;110013;1239;57849;-84
2023/10/23 04:49:28;;;;;;;;;;;;;;;13.24;100.00;100896.83;109975;1239;61011;-82
2023/10/23 04:51:57;;;;;;;;;;;;;;;13.15;100.00;100891.18;109989;1239;74704;-83
2023/10/23 04:54:25;;;;;;;;;;;;;;;13.16;100.00;100901.27;109945;1237;72710;-77
2023/10/23 04:56:54;;;;;;;;;;;;;;;13.14;100.00;100902.54;109988;1239;60491;-82
2023/10/23 04:59:22;;;;;;;;;;;;;;;13.11;100.00;100912.88;110031;1238;73407;-83
2023/10/23 05:01:51;;;;;;;;;;;;;;;13.13;100.00;100918.15;110096;1239;58313;-82
2023/10/23 05:04:19;;;;;;;;;;;;;;;13.14;100.00;100931.38;110044;1241;60050;-83
2023/10/23 05:06:48;;;;;;;;;;;;;;;13.14;100.00;100940.25;110015;1238;74785;-83
2023/10/23 05:09:17;;;;;;;;;;;;;;;13.15;100.00;100949.79;110115;1240;61111;-82
2023/10/23 05:11:46;;;;;;;;;;;;;;;13.15;100.00;100956.77;109927;1238;69285;-81
2023/10/23 05:14:14;;;;;;;;;;;;;;;13.11;100.00;100965.48;109907;1239;64511;-83
2023/10/23 05:16:43;;;;;;;;;;;;;;;13.06;100.00;100976.24;109903;1241;61081;-83
2023/10/23 05:19:11;;;;;;;;;;;;;;;13.00;100.00;100984.72;109740;1238;61625;-75
2023/10/23 05:21:40;;;;;;;;;;;;;;;12.97;100.00;100993.18;109918;1238;63687;-83
2023/10/23 05:24:08;;;;;;;;;;;;;;;12.97;100.00;100995.80;109905;1238;71199;-83
2023/10/23 05:26:37;;;;;;;;;;;;;;;12.99;100.00;100999.50;109609;1238;413471;-83
2023/10/23 05:29:05;;;;;;;;;;;;;;;13.04;100.00;101011.91;109745;1238;72972;-84
2023/10/23 05:31:34;;;;;;;;;;;;;;;13.06;100.00;101016.97;109847;1241;58288;-80
2023/10/23 05:34:03;;;;;;;;;;;;;;;13.12;100.00;101024.54;109930;1239;60892;-84
2023/10/23 05:36:32;;;;;;;;;;;;;;;13.21;100.00;101031.02;109747;1241;63301;-80
2023/10/23 05:39:00;;;;;;;;;;;;;;;13.32;100.00;101034.88;109969;1239;72445;-83
2023/10/23 05:41:29;;;;;;;;;;;;;;;13.40;100.00;101041.58;109981;1238;60969;-82
2023/10/23 05:43:57;;;;;;;;;;;;;;;13.48;100.00;101047.57;109955;1239;73739;-83
2023/10/23 05:46:26;;;;;;;;;;;;;;;13.57;100.00;101050.92;109858;1241;58323;-68
2023/10/23 05:48:55;;;;;;;;;;;;;;;13.67;100.00;101055.58;109866;1240;58139;-69
2023/10/23 05:51:23;;;;;;;;;;;;;;;13.76;100.00;101059.89;109808;1238;73525;-71
2023/10/23 05:53:52;;;;;;;;;;;;;;;13.83;100.00;101063.00;109804;1238;60983;-70
2023/10/23 05:56:20;;;;;;;;;;;;;;;13.91;100.00;101065.20;109822;1238;69522;-69
2023/10/23 05:58:50;;;;;;;;;;;;;;;13.97;100.00;101068.18;109822;1238;63360;-69
2023/10/23 06:01:19;;;;;;;;;;;;;;;14.03;100.00;101069.59;109808;1238;58244;-70
2023/10/23 06:03:47;;;;;;;;;;;;;;;14.19;100.00;101075.90;109800;1238;60171;-71
2023/10/23 06:06:16;;;;;;;;;;;;;;;14.34;100.00;101076.44;109853;1238;64196;-70
2023/10/23 06:08:45;;;;;;;;;;;;;;;14.41;100.00;101080.88;109917;1238;72335;-69
2023/10/23 06:11:13;;;;;;;;;;;;;;;14.49;100.00;101082.16;109900;1238;69823;-70
2023/10/23 06:13:42;;;;;;;;;;;;;;;14.60;100.00;101086.72;109938;1238;62882;-70
2023/10/23 06:16:10;;;;;;;;;;;;;;;14.63;100.00;101087.53;110008;1240;62740;-69
2023/10/23 06:18:39;;;;;;;;;;;;;;;14.81;100.00;101088.65;109884;1238;57725;-69
2023/10/23 06:21:08;;;;;;;;;;;;;;;14.81;100.00;101087.71;109950;1238;63493;-70
2023/10/23 06:23:40;;;;;;;;;;;;;;;14.86;100.00;101087.33;110096;1238;72235;-70
2023/10/23 06:26:09;;;;;;;;;;;;;;;14.86;100.00;101095.22;110060;1241;70913;-69
2023/10/23 06:28:38;;;;;;;;;;;;;;;14.89;100.00;101091.98;109919;1238;73682;-69
2023/10/23 06:31:07;;;;;;;;;;;;;;;14.88;100.00;101090.64;110092;1238;57844;-70
2023/10/23 06:33:38;;;;;;;;;;;;;;;14.87;100.00;101089.88;110081;1238;58333;-70
2023/10/23 06:36:08;;;;;;;;;;;;;;;14.87;100.00;101094.81;109934;1238;74118;-70
2023/10/23 06:38:37;;;;;;;;;;;;;;;14.83;100.00;101090.75;109906;1238;72983;-70
2023/10/23 06:41:08;;;;;;;;;;;;;;;14.83;100.00;101093.48;110046;1238;70704;-69
2023/10/23 06:43:39;;;;;;;;;;;;;;;14.81;100.00;101098.23;110000;1238;73312;-70
2023/10/23 06:46:08;;;;;;;;;;;;;;;14.79;100.00;101097.48;110036;1241;63437;-70
2023/10/23 06:48:44;;;;;;;;;;;;;;;14.77;100.00;101096.96;110064;1238;57799;-70
2023/10/23 06:51:16;;;;;;;;;;;;;;;14.76;100.00;101102.33;110071;1241;63794;-69
2023/10/23 06:53:44;;;;;;;;;;;;;;;14.77;100.00;101101.40;110063;1238;72138;-70
2023/10/23 06:56:13;;;;;;;;;;;;;;;14.79;100.00;101101.56;110097;1238;59818;-69
2023/10/23 06:58:41;;;;;;;;;;;;;;;14.82;100.00;101110.23;110044;1238;73867;-69
2023/10/23 07:01:10;;;;;;;;;;;;;;;14.85;100.00;101112.09;110044;1238;63107;-69
2023/10/23 07:03:39;;;;;;;;;;;;;;;14.89;100.00;101113.86;110085;1238;60692;-70
2023/10/23 07:06:08;;;;;;;;;;;;;;;14.91;100.00;101116.67;110110;1238;63395;-70
2023/10/23 07:08:39;;;;;;;;;;;;;;;14.93;100.00;101120.61;110056;1238;61610;-69
2023/10/23 07:11:12;;;;;;;;;;;;;;;14.92;100.00;101121.58;109904;1238;70356;-70
2023/10/23 07:13:41;;;;;;;;;;;;;;;14.92;100.00;101122.75;109909;1238;62604;-69
2023/10/23 07:16:09;;;;;;;;;;;;;;;14.95;100.00;101123.91;109885;1238;63134;-70
2023/10/23 07:18:38;;;;;;;;;;;;;;;14.96;100.00;101120.82;109909;1238;61533;-70
2023/10/23 07:21:07;;;;;;;;;;;;;;;14.96;100.00;101120.29;109902;1238;63604;-69
2023/10/23 07:23:36;;;;;;;;;;;;;;;14.99;100.00;101120.98;109916;1238;62386;-70
2023/10/23 07:26:10;;;;;;;;;;;;;;;15.00;100.00;101123.52;109910;1238;70566;-70
2023/10/23 07:28:39;;;;;;;;;;;;;;;15.07;100.00;101123.92;109787;1238;63261;-70
2023/10/23 07:31:09;;;;;;;;;;;;;;;15.16;100.00;101123.39;109913;1240;58501;-69
2023/10/23 07:33:38;;;;;;;;;;;;;;;15.18;100.00;101122.53;109775;1238;59749;-71
2023/10/23 07:36:09;;;;;;;;;;;;;;;15.25;100.00;101120.11;109731;1238;74367;-69
2023/10/23 07:38:40;;;;;;;;;;;;;;;15.49;100.00;101115.91;109927;1238;72058;-69
2023/10/23 07:41:10;;;;;;;;;;;;;;;15.61;100.00;101120.02;109923;1238;60426;-69
2023/10/23 07:43:39;;;;;;;;;;;;;;;15.59;100.00;101119.67;109964;1238;72970;-70
2023/10/23 07:46:09;;;;;;;;;;;;;;;15.56;100.00;101123.66;109771;1242;58244;-69
2023/10/23 07:48:45;;;;;;;;;;;;;;;15.53;100.00;101121.09;109779;1238;61129;-69
2023/10/23 07:51:15;;;;;;;;;;;;;;;15.48;100.00;101120.27;109909;1238;74863;-69
2023/10/23 07:53:43;;;;;;;;;;;;;;;15.59;100.00;101125.11;109760;1238;72676;-70
2023/10/23 07:56:15;;;;;;;;;;;;;;;15.68;100.00;101123.64;109968;1238;59399;-70
2023/10/23 07:58:43;;;;;;;;;;;;;;;15.79;100.00;101124.98;109905;1238;73799;-69
2023/10/23 08:01:14;;;;;;;;;;;;;;;15.93;100.00;101125.52;109912;1239;57922;-70
2023/10/23 08:03:42;;;;;;;;;;;;;;;16.05;100.00;101125.26;109739;1238;60888;-70
2023/10/23 08:06:11;;;;;;;;;;;;;;;16.24;100.00;101129.42;109907;1238;74797;-70
2023/10/23 08:08:41;;;;;;;;;;;;;;;16.39;100.00;101131.54;109775;1238;61904;-69
2023/10/23 08:11:11;;;;;;;;;;;;;;;16.48;100.00;101135.30;109886;1238;59040;-70
2023/10/23 08:13:40;;;;;;;;;;;;;;;16.68;100.00;101134.73;110028;1239;62519;-69
2023/10/23 08:16:09;;;;;;;;;;;;;;;16.76;100.00;101130.18;110042;1239;60384;-69
2023/10/23 08:18:38;;;;;;;;;;;;;;;16.76;100.00;101132.43;110042;1238;61333;-70
2023/10/23 08:21:14;;;;;;;;;;;;;;;17.05;100.00;101128.70;109896;1238;73981;-69
2023/10/23 08:23:46;;;;;;;;;;;;;;;17.10;100.00;101128.02;110038;1238;62108;-70
2023/10/23 08:26:15;;;;;;;;;;;;;;;17.07;100.00;101129.39;109966;1238;59273;-70
2023/10/23 08:28:44;;;;;;;;;;;;;;;17.07;100.00;101130.87;109994;1238;73365;-70
2023/10/23 08:31:16;;;;;;;;;;;;;;;17.02;100.00;101131.43;109879;1240;58227;-70
2023/10/23 08:34:05;;;;;;;;;;;;;;;17.21;100.00;101133.21;109903;1238;61200;-70
2023/10/23 08:36:34;;;;;;;;;;;;;;;17.47;100.00;101131.40;109837;1238;75865;-70
2023/10/23 08:39:03;;;;;;;;;;;;;;;17.76;100.00;101127.64;109858;1239;62704;-71
2023/10/23 08:41:34;;;;;;;;;;;;;;;18.02;100.00;101119.15;109859;1239;59199;-70
2023/10/23 08:44:03;;;;;;;;;;;;;;;18.19;100.00;101114.64;109847;1238;63203;-70
2023/10/23 08:46:33;;;;;;;;;;;;;;;18.20;100.00;101111.84;109886;1241;58236;-70
2023/10/23 08:49:03;;;;;;;;;;;;;;;18.41;100.00;101113.31;109887;1238;58427;-69
2023/10/23 08:51:33;;;;;;;;;;;;;;;18.43;100.00;101117.50;109847;1238;65743;-70
2023/10/23 08:54:13;;;;;;;;;;;;;;;18.58;100.00;101120.84;109779;1238;62033;-70
2023/10/23 08:56:42;;;;;;;;;;;;;;;18.89;100.00;101121.86;109768;1238;70269;-71
2023/10/23 08:59:15;;;;;;;;;;;;;;;19.06;100.00;101119.66;109932;1238;63036;-70
2023/10/23 09:01:44;;;;;;;;;;;;;;;18.88;100.00;101122.82;109766;1244;57827;-70
2023/10/23 09:04:13;;;;;;;;;;;;;;;19.16;100.00;101119.59;109917;1238;57744;-70
2023/10/23 09:06:45;;;;;;;;;;;;;;;19.25;100.00;101123.58;109794;1238;63795;-69
2023/10/23 09:09:14;;;;;;;;;;;;;;;19.42;100.00;101119.88;109765;1238;61757;-70
2023/10/23 09:11:48;;;;;;;;;;;;;;;19.39;100.00;101119.11;109896;1238;69685;-71
2023/10/23 09:14:23;;;;;;;;;;;;;;;19.60;100.00;101116.80;110055;1238;74205;-70
2023/10/23 09:16:53;;;;;;;;;;;;;;;19.62;100.00;101113.30;109919;1244;58344;-71
2023/10/23 09:19:27;;;;;;;;;;;;;;;19.72;99.81;101115.34;109948;1242;58257;-70
2023/10/23 09:21:56;;;;;;;;;;;;;;;19.78;99.17;101115.95;110098;1238;74249;-71
2023/10/23 09:24:25;;;;;;;;;;;;;;;20.07;99.12;101110.83;109941;1238;70471;-71
2023/10/23 09:26:54;;;;;;;;;;;;;;;20.28;97.49;101112.75;109978;1238;69292;-71
2023/10/23 09:29:26;;;;;;;;;;;;;;;20.38;95.90;101115.63;110153;1238;73873;-70
2023/10/23 09:31:59;;;;;;;;;;;;;;;20.56;94.04;101110.86;109937;1242;58281;-70
2023/10/23 09:34:29;;;;;;;;;;;;;;;20.57;94.60;101112.14;109972;1241;60435;-70
2023/10/23 09:36:57;;;;;;;;;;;;;;;20.49;94.01;101107.05;110049;1238;73929;-70
2023/10/23 09:39:26;;;;;;;;;;;;;;;20.56;95.43;101104.46;110115;1241;61200;-70
2023/10/23 09:41:55;;;;;;;;;;;;;;;20.56;93.63;101100.42;110122;1238;70792;-69
2023/10/23 09:44:26;;;;;;;;;;;;;;;20.77;91.60;101094.37;110004;1238;74752;-71
2023/10/23 09:46:57;;;;;;;;;;;;;;;20.75;91.45;101095.16;110070;1238;61378;-70
2023/10/23 09:49:26;;;;;;;;;;;;;;;20.67;92.23;101097.30;110017;1238;61416;-71
2023/10/23 09:51:59;;;;;;;;;;;;;;;20.68;91.90;101096.27;110027;1240;65449;-70
2023/10/23 09:54:30;;;;;;;;;;;;;;;20.68;92.61;101088.67;110050;1238;72084;-70
2023/10/23 09:57:03;;;;;;;;;;;;;;;20.72;92.43;101083.98;110031;1241;58974;-71
2023/10/23 09:59:42;;;;;;;;;;;;;;;20.68;91.61;101081.64;110027;1238;73027;-70
2023/10/23 10:02:13;;;;;;;;;;;;;;;20.50;90.92;101079.85;110005;1237;61409;-70
2023/10/23 10:05:04;;;;;;;;;;;;;;;20.71;92.29;101076.83;110086;1238;57856;-72
2023/10/23 10:07:53;;;;;;;;;;;;;;;20.56;91.75;101083.39;109932;1238;74322;-73
2023/10/23 10:10:24;;;;;;;;;;;;;;;20.56;91.28;101078.73;110111;1240;62518;-72
2023/10/23 10:12:55;;;;;;;;;;;;;;;20.44;92.18;101077.35;110003;1242;68036;-81
2023/10/23 10:15:24;;;;;;;;;;;;;;;20.31;93.79;101069.98;109934;1244;63224;-82
2023/10/23 10:17:53;;;;;;;;;;;;;;;20.43;93.89;101068.16;110159;1238;61160;-81
2023/10/23 10:20:24;;;;;;;;;;;;;;;20.59;92.76;101065.79;109998;1242;58308;-83
2023/10/23 10:22:54;;;;;;;;;;;;;;;20.66;92.05;101067.63;110374;1242;63637;-85
2023/10/23 10:25:24;;;;;;;;;;;;;;;20.78;90.18;101067.55;110421;1242;60715;-84
2023/10/23 10:28:02;;;;;;;;;;;;;;;20.81;89.15;101061.63;110360;1238;70462;-84
2023/10/23 10:30:49;;;;;;;;;;;;;;;21.15;89.12;101059.55;110366;1240;73457;-83
2023/10/23 10:33:23;;;;;;;;;;;;;;;21.48;89.72;101050.70;109900;1248;58303;-87
2023/10/23 10:36:13;;;;;;;;;;;;;;;21.33;86.52;101043.55;109752;1247;57701;-87
2023/10/23 10:38:42;;;;;;;;;;;;;;;21.74;88.45;101044.02;109709;1248;73641;-82
2023/10/23 10:41:18;;;;;;;;;;;;;;;22.20;82.98;101044.59;109808;1244;71938;-84
2023/10/23 10:43:53;;;;;;;;;;;;;;;22.25;80.07;101041.71;109807;1244;69272;-84
2023/10/23 10:46:24;;;;;;;;;;;;;;;22.54;80.78;101046.08;109670;1244;65306;-81
2023/10/23 10:48:54;;;;;;;;;;;;;;;22.75;79.30;101049.18;109704;1244;62125;-87
2023/10/23 10:51:25;;;;;;;;;;;;;;;22.79;78.70;101044.29;109811;1245;57671;-87
2023/10/23 10:54:06;;;;;;;;;;;;;;;23.13;77.77;101040.13;109724;1244;72489;-82
2023/10/23 10:56:34;;;;;;;;;;;;;;;23.46;74.98;101042.52;109752;1244;71269;-83
2023/10/23 10:59:04;;;;;;;;;;;;;;;23.72;74.45;101041.52;109743;1244;59728;-82
2023/10/23 11:01:32;;;;;;;;;;;;;;;24.00;71.42;101039.05;109767;1244;64877;-85
2023/10/23 11:04:02;;;;;;;;;;;;;;;24.06;70.74;101035.01;109801;1246;61402;-79
2023/10/23 11:06:32;;;;;;;;;;;;;;;23.90;69.13;101032.70;109840;1244;60901;-85
2023/10/23 11:09:00;;;;;;;;;;;;;;;24.14;71.30;101031.41;109775;1243;74846;-86
2023/10/23 11:11:29;;;;;;;;;;;;;;;24.11;68.54;101034.70;109901;1244;61482;-84
2023/10/23 11:14:00;;;;;;;;;;;;;;;24.01;67.57;101038.45;109778;1244;70487;-83
2023/10/23 11:16:32;;;;;;;;;;;;;;;24.09;66.80;101037.64;109800;1245;62606;-81
2023/10/23 11:19:01;;;;;;;;;;;;;;;24.33;64.80;101038.25;109947;1247;60409;-84
2023/10/23 11:21:32;;;;;;;;;;;;;;;24.34;66.28;101033.70;110100;1243;57920;-85
2023/10/23 11:24:02;;;;;;;;;;;;;;;24.43;67.58;101035.11;109890;1244;62968;-81
2023/10/23 11:26:31;;;;;;;;;;;;;;;24.46;63.57;101031.87;109794;1244;61404;-81
2023/10/23 11:29:00;;;;;;;;;;;;;;;24.42;63.54;101024.85;109711;1243;70478;-81
2023/10/23 11:31:28;;;;;;;;;;;;;;;24.33;64.95;101025.93;109636;1247;74031;-82
2023/10/23 11:33:57;;;;;;;;;;;;;;;24.32;64.19;101026.36;109852;1245;58221;-81
2023/10/23 11:36:32;;;;;;;;;;;;;;;24.56;61.97;101022.33;109842;1243;58153;-82
2023/10/23 11:39:08;;;;;;;;;;;;;;;24.45;62.68;101030.18;109813;1244;74311;-82
2023/10/23 11:41:36;;;;;;;;;;;;;;;24.37;62.42;101034.17;109815;1245;72353;-82
2023/10/23 11:44:05;;;;;;;;;;;;;;;24.35;62.31;101031.23;109798;1244;60310;-82
2023/10/23 11:46:34;;;;;;;;;;;;;;;24.17;63.12;101035.10;109608;1243;62553;-83
2023/10/23 11:49:03;;;;;;;;;;;;;;;24.29;63.17;101036.48;109555;1246;58342;-82
2023/10/23 11:51:32;;;;;;;;;;;;;;;23.91;63.73;101030.06;109707;1244;58223;-81
2023/10/23 11:54:03;;;;;;;;;;;;;;;24.08;63.67;101026.19;109599;1244;73563;-83
2023/10/23 11:56:32;;;;;;;;;;;;;;;23.96;63.03;101025.04;109601;1244;61557;-83
2023/10/23 11:59:01;;;;;;;;;;;;;;;24.35;61.36;101020.30;109598;1244;60596;-83
2023/10/23 12:01:30;;;;;;;;;;;;;;;23.86;62.71;101020.59;109678;1244;73828;-82
2023/10/23 12:03:59;;;;;;;;;;;;;;;24.53;61.68;101022.15;109698;1245;57780;-82
2023/10/23 12:06:28;;;;;;;;;;;;;;;24.99;59.55;101018.33;109656;1245;60921;-82
2023/10/23 12:08:57;;;;;;;;;;;;;;;25.17;60.15;101020.19;109480;1244;71786;-82
2023/10/23 12:11:26;;;;;;;;;;;;;;;25.63;57.68;101022.36;109652;1244;71327;-82
2023/10/23 12:13:54;;;;;;;;;;;;;;;25.46;56.88;101022.16;109550;1244;69500;-83
2023/10/23 12:16:23;;;;;;;;;;;;;;;24.98;57.07;101021.39;109662;1243;63547;-83
2023/10/23 12:18:51;;;;;;;;;;;;;;;24.98;56.83;101015.85;109652;1244;61085;-82
2023/10/23 12:21:20;;;;;;;;;;;;;;;24.91;58.17;101016.34;109705;1245;58320;-83
2023/10/23 12:23:49;;;;;;;;;;;;;;;25.46;55.80;101015.23;109672;1244;62985;-83
2023/10/23 12:26:21;;;;;;;;;;;;;;;25.24;54.99;101012.42;109828;1245;72075;-82
2023/10/23 12:28:49;;;;;;;;;;;;;;;25.53;53.82;101014.33;109676;1244;69540;-82
2023/10/23 12:31:18;;;;;;;;;;;;;;;25.40;52.75;101014.81;109805;1244;62926;-82
2023/10/23 12:33:52;;;;;;;;;;;;;;;24.94;53.07;101009.28;109676;1248;60986;-82